sensor_id;sensor_type;location;lat;lon;timestamp;P1;durP1;ratioP1;P2;durP2;ratioP2
49101;SDS011;34913;47.520;19.186;2023-08-30T00:00:56;2.95;;;1.55;;
49101;SDS011;34913;47.520;19.186;2023-08-30T00:03:22;3.05;;;1.50;;
49101;SDS011;34913;47.520;19.186;2023-08-30T00:05:47;2.55;;;1.80;;
49101;SDS011;34913;47.520;19.186;2023-08-30T00:08:13;3.03;;;1.65;;
49101;SDS011;34913;47.520;19.186;2023-08-30T00:10:43;3.53;;;1.60;;
49101;SDS011;34913;47.520;19.186;2023-08-30T00:13:08;1.73;;;1.63;;
49101;SDS011;34913;47.520;19.186;2023-08-30T00:15:34;2.78;;;1.70;;
49101;SDS011;34913;47.520;19.186;2023-08-30T00:17:59;2.63;;;1.80;;
49101;SDS011;34913;47.520;19.186;2023-08-30T00:20:24;2.45;;;2.00;;
49101;SDS011;34913;47.520;19.186;2023-08-30T00:22:50;2.25;;;1.90;;
49101;SDS011;34913;47.520;19.186;2023-08-30T00:25:15;3.35;;;1.73;;
49101;SDS011;34913;47.520;19.186;2023-08-30T00:27:41;3.45;;;1.80;;
49101;SDS011;34913;47.520;19.186;2023-08-30T00:30:06;2.83;;;1.92;;
49101;SDS011;34913;47.520;19.186;2023-08-30T00:32:34;3.13;;;2.10;;
49101;SDS011;34913;47.520;19.186;2023-08-30T00:34:59;2.70;;;1.98;;
49101;SDS011;34913;47.520;19.186;2023-08-30T00:37:25;3.13;;;1.90;;
49101;SDS011;34913;47.520;19.186;2023-08-30T00:39:50;3.85;;;2.20;;
49101;SDS011;34913;47.520;19.186;2023-08-30T00:42:16;15.32;;;2.33;;
49101;SDS011;34913;47.520;19.186;2023-08-30T00:44:41;5.97;;;2.15;;
49101;SDS011;34913;47.520;19.186;2023-08-30T00:47:06;7.65;;;3.33;;
49101;SDS011;34913;47.520;19.186;2023-08-30T00:49:32;2.25;;;1.88;;
49101;SDS011;34913;47.520;19.186;2023-08-30T00:51:59;3.15;;;2.10;;
49101;SDS011;34913;47.520;19.186;2023-08-30T00:54:28;2.50;;;2.22;;
49101;SDS011;34913;47.520;19.186;2023-08-30T00:56:54;4.15;;;2.45;;
49101;SDS011;34913;47.520;19.186;2023-08-30T00:59:20;2.72;;;2.40;;
49101;SDS011;34913;47.520;19.186;2023-08-30T01:01:47;4.57;;;2.20;;
49101;SDS011;34913;47.520;19.186;2023-08-30T01:04:13;4.18;;;2.60;;
49101;SDS011;34913;47.520;19.186;2023-08-30T01:06:39;3.50;;;2.67;;
49101;SDS011;34913;47.520;19.186;2023-08-30T01:09:04;3.40;;;2.35;;
49101;SDS011;34913;47.520;19.186;2023-08-30T01:14:08;3.15;;;2.70;;
49101;SDS011;34913;47.520;19.186;2023-08-30T01:16:39;3.58;;;2.60;;
49101;SDS011;34913;47.520;19.186;2023-08-30T01:21:54;5.72;;;3.17;;
49101;SDS011;34913;47.520;19.186;2023-08-30T01:24:41;3.65;;;3.08;;
49101;SDS011;34913;47.520;19.186;2023-08-30T01:27:14;3.53;;;3.08;;
49101;SDS011;34913;47.520;19.186;2023-08-30T01:29:42;3.45;;;3.15;;
49101;SDS011;34913;47.520;19.186;2023-08-30T01:32:10;3.90;;;3.50;;
49101;SDS011;34913;47.520;19.186;2023-08-30T01:34:37;4.60;;;3.03;;
49101;SDS011;34913;47.520;19.186;2023-08-30T01:37:07;4.00;;;3.60;;
49101;SDS011;34913;47.520;19.186;2023-08-30T01:39:34;3.72;;;3.33;;
49101;SDS011;34913;47.520;19.186;2023-08-30T01:42:02;5.53;;;4.75;;
49101;SDS011;34913;47.520;19.186;2023-08-30T01:44:28;5.97;;;4.82;;
49101;SDS011;34913;47.520;19.186;2023-08-30T01:46:58;5.63;;;5.13;;
49101;SDS011;34913;47.520;19.186;2023-08-30T01:49:25;5.57;;;5.07;;
49101;SDS011;34913;47.520;19.186;2023-08-30T01:51:56;5.43;;;4.93;;
49101;SDS011;34913;47.520;19.186;2023-08-30T01:54:22;5.95;;;4.97;;
49101;SDS011;34913;47.520;19.186;2023-08-30T01:56:49;4.95;;;4.45;;
49101;SDS011;34913;47.520;19.186;2023-08-30T01:59:14;5.30;;;4.50;;
49101;SDS011;34913;47.520;19.186;2023-08-30T02:01:40;5.50;;;4.95;;
49101;SDS011;34913;47.520;19.186;2023-08-30T02:04:05;5.57;;;4.95;;
49101;SDS011;34913;47.520;19.186;2023-08-30T02:12:12;6.20;;;5.35;;
49101;SDS011;34913;47.520;19.186;2023-08-30T02:14:39;5.82;;;5.30;;
49101;SDS011;34913;47.520;19.186;2023-08-30T02:17:17;5.57;;;5.07;;
49101;SDS011;34913;47.520;19.186;2023-08-30T02:19:43;6.90;;;6.10;;
49101;SDS011;34913;47.520;19.186;2023-08-30T02:22:09;7.40;;;6.07;;
49101;SDS011;34913;47.520;19.186;2023-08-30T02:24:35;8.50;;;6.43;;
49101;SDS011;34913;47.520;19.186;2023-08-30T02:27:01;7.15;;;6.43;;
49101;SDS011;34913;47.520;19.186;2023-08-30T02:29:26;7.07;;;5.97;;
49101;SDS011;34913;47.520;19.186;2023-08-30T02:31:51;7.53;;;6.38;;
49101;SDS011;34913;47.520;19.186;2023-08-30T02:34:17;7.10;;;6.43;;
49101;SDS011;34913;47.520;19.186;2023-08-30T02:36:42;11.07;;;7.13;;
49101;SDS011;34913;47.520;19.186;2023-08-30T02:39:08;7.20;;;6.18;;
49101;SDS011;34913;47.520;19.186;2023-08-30T02:41:33;7.40;;;6.70;;
49101;SDS011;34913;47.520;19.186;2023-08-30T02:43:59;7.47;;;6.78;;
49101;SDS011;34913;47.520;19.186;2023-08-30T02:46:25;7.13;;;6.43;;
49101;SDS011;34913;47.520;19.186;2023-08-30T02:48:50;7.88;;;7.07;;
49101;SDS011;34913;47.520;19.186;2023-08-30T02:51:16;7.15;;;5.65;;
49101;SDS011;34913;47.520;19.186;2023-08-30T02:53:42;8.30;;;7.07;;
49101;SDS011;34913;47.520;19.186;2023-08-30T02:56:07;7.55;;;6.85;;
49101;SDS011;34913;47.520;19.186;2023-08-30T02:58:32;9.73;;;6.82;;
49101;SDS011;34913;47.520;19.186;2023-08-30T03:00:59;7.75;;;6.95;;
49101;SDS011;34913;47.520;19.186;2023-08-30T03:03:25;8.75;;;6.65;;
49101;SDS011;34913;47.520;19.186;2023-08-30T03:05:50;8.23;;;6.63;;
49101;SDS011;34913;47.520;19.186;2023-08-30T03:08:16;7.15;;;5.93;;
49101;SDS011;34913;47.520;19.186;2023-08-30T03:10:41;7.18;;;6.47;;
49101;SDS011;34913;47.520;19.186;2023-08-30T03:13:06;7.15;;;6.45;;
49101;SDS011;34913;47.520;19.186;2023-08-30T03:15:32;10.55;;;7.07;;
49101;SDS011;34913;47.520;19.186;2023-08-30T03:17:59;8.50;;;7.57;;
49101;SDS011;34913;47.520;19.186;2023-08-30T03:20:24;7.18;;;6.47;;
49101;SDS011;34913;47.520;19.186;2023-08-30T03:22:50;10.23;;;7.35;;
49101;SDS011;34913;47.520;19.186;2023-08-30T03:25:15;9.48;;;6.72;;
49101;SDS011;34913;47.520;19.186;2023-08-30T03:27:43;7.70;;;6.90;;
49101;SDS011;34913;47.520;19.186;2023-08-30T03:30:09;9.38;;;6.45;;
49101;SDS011;34913;47.520;19.186;2023-08-30T03:32:35;9.32;;;7.00;;
49101;SDS011;34913;47.520;19.186;2023-08-30T03:35:02;6.90;;;5.88;;
49101;SDS011;34913;47.520;19.186;2023-08-30T03:37:28;11.05;;;7.50;;
49101;SDS011;34913;47.520;19.186;2023-08-30T03:39:54;9.95;;;7.30;;
49101;SDS011;34913;47.520;19.186;2023-08-30T03:42:19;9.75;;;7.13;;
49101;SDS011;34913;47.520;19.186;2023-08-30T03:44:45;8.48;;;7.30;;
49101;SDS011;34913;47.520;19.186;2023-08-30T03:47:10;7.03;;;6.32;;
49101;SDS011;34913;47.520;19.186;2023-08-30T03:49:36;10.20;;;7.22;;
49101;SDS011;34913;47.520;19.186;2023-08-30T03:52:01;8.40;;;7.60;;
49101;SDS011;34913;47.520;19.186;2023-08-30T03:54:26;8.15;;;6.60;;
49101;SDS011;34913;47.520;19.186;2023-08-30T03:56:52;11.93;;;7.07;;
49101;SDS011;34913;47.520;19.186;2023-08-30T03:59:17;9.50;;;7.30;;
49101;SDS011;34913;47.520;19.186;2023-08-30T04:01:43;7.38;;;5.95;;
49101;SDS011;34913;47.520;19.186;2023-08-30T04:04:10;10.95;;;7.93;;
49101;SDS011;34913;47.520;19.186;2023-08-30T04:06:35;12.60;;;7.70;;
49101;SDS011;34913;47.520;19.186;2023-08-30T04:09:01;9.45;;;6.85;;
49101;SDS011;34913;47.520;19.186;2023-08-30T04:11:26;9.05;;;7.18;;
49101;SDS011;34913;47.520;19.186;2023-08-30T04:13:52;9.88;;;7.07;;
49101;SDS011;34913;47.520;19.186;2023-08-30T04:16:18;12.93;;;7.35;;
49101;SDS011;34913;47.520;19.186;2023-08-30T04:18:43;13.55;;;7.13;;
49101;SDS011;34913;47.520;19.186;2023-08-30T04:21:08;9.75;;;7.40;;
49101;SDS011;34913;47.520;19.186;2023-08-30T04:23:34;10.25;;;6.90;;
49101;SDS011;34913;47.520;19.186;2023-08-30T04:26:00;9.18;;;7.05;;
49101;SDS011;34913;47.520;19.186;2023-08-30T04:28:26;10.00;;;7.43;;
49101;SDS011;34913;47.520;19.186;2023-08-30T04:30:54;8.90;;;7.50;;
49101;SDS011;34913;47.520;19.186;2023-08-30T04:33:21;9.32;;;6.95;;
49101;SDS011;34913;47.520;19.186;2023-08-30T04:35:51;9.55;;;7.20;;
49101;SDS011;34913;47.520;19.186;2023-08-30T04:38:17;12.85;;;7.50;;
49101;SDS011;34913;47.520;19.186;2023-08-30T04:40:42;11.45;;;7.28;;
49101;SDS011;34913;47.520;19.186;2023-08-30T04:43:08;8.63;;;7.55;;
49101;SDS011;34913;47.520;19.186;2023-08-30T04:45:36;13.07;;;7.38;;
49101;SDS011;34913;47.520;19.186;2023-08-30T04:48:01;11.57;;;7.13;;
49101;SDS011;34913;47.520;19.186;2023-08-30T04:50:27;8.75;;;7.50;;
49101;SDS011;34913;47.520;19.186;2023-08-30T04:52:53;9.50;;;7.10;;
49101;SDS011;34913;47.520;19.186;2023-08-30T04:55:18;11.10;;;6.70;;
49101;SDS011;34913;47.520;19.186;2023-08-30T04:57:44;8.32;;;7.35;;
49101;SDS011;34913;47.520;19.186;2023-08-30T05:00:10;11.57;;;7.80;;
49101;SDS011;34913;47.520;19.186;2023-08-30T05:02:37;11.13;;;7.53;;
49101;SDS011;34913;47.520;19.186;2023-08-30T05:05:02;12.18;;;7.05;;
49101;SDS011;34913;47.520;19.186;2023-08-30T05:07:28;9.55;;;7.43;;
49101;SDS011;34913;47.520;19.186;2023-08-30T05:09:54;9.73;;;7.35;;
49101;SDS011;34913;47.520;19.186;2023-08-30T05:12:19;10.13;;;7.00;;
49101;SDS011;34913;47.520;19.186;2023-08-30T05:14:45;9.23;;;7.43;;
49101;SDS011;34913;47.520;19.186;2023-08-30T05:17:10;9.25;;;7.63;;
49101;SDS011;34913;47.520;19.186;2023-08-30T05:19:35;9.50;;;7.22;;
49101;SDS011;34913;47.520;19.186;2023-08-30T05:22:01;10.75;;;7.43;;
49101;SDS011;34913;47.520;19.186;2023-08-30T05:24:26;10.48;;;6.53;;
49101;SDS011;34913;47.520;19.186;2023-08-30T05:26:53;9.38;;;6.80;;
49101;SDS011;34913;47.520;19.186;2023-08-30T05:29:19;8.50;;;6.30;;
49101;SDS011;34913;47.520;19.186;2023-08-30T05:31:44;10.25;;;7.28;;
49101;SDS011;34913;47.520;19.186;2023-08-30T05:34:10;10.20;;;7.18;;
49101;SDS011;34913;47.520;19.186;2023-08-30T05:36:36;8.70;;;7.15;;
49101;SDS011;34913;47.520;19.186;2023-08-30T05:39:01;9.98;;;6.72;;
49101;SDS011;34913;47.520;19.186;2023-08-30T05:41:28;10.10;;;7.10;;
49101;SDS011;34913;47.520;19.186;2023-08-30T05:43:54;9.07;;;6.68;;
49101;SDS011;34913;47.520;19.186;2023-08-30T05:46:20;8.00;;;6.72;;
49101;SDS011;34913;47.520;19.186;2023-08-30T05:48:45;7.70;;;6.60;;
49101;SDS011;34913;47.520;19.186;2023-08-30T05:51:11;7.63;;;6.53;;
49101;SDS011;34913;47.520;19.186;2023-08-30T05:53:36;8.15;;;6.53;;
49101;SDS011;34913;47.520;19.186;2023-08-30T05:56:03;7.85;;;6.55;;
49101;SDS011;34913;47.520;19.186;2023-08-30T05:58:28;10.00;;;6.75;;
49101;SDS011;34913;47.520;19.186;2023-08-30T06:00:54;10.48;;;7.65;;
49101;SDS011;34913;47.520;19.186;2023-08-30T06:03:20;12.55;;;9.07;;
49101;SDS011;34913;47.520;19.186;2023-08-30T06:05:45;10.90;;;7.63;;
49101;SDS011;34913;47.520;19.186;2023-08-30T06:08:11;13.02;;;9.07;;
49101;SDS011;34913;47.520;19.186;2023-08-30T06:10:37;11.23;;;8.35;;
49101;SDS011;34913;47.520;19.186;2023-08-30T06:13:03;11.77;;;7.82;;
49101;SDS011;34913;47.520;19.186;2023-08-30T06:15:29;12.50;;;8.48;;
49101;SDS011;34913;47.520;19.186;2023-08-30T06:17:54;9.95;;;7.57;;
49101;SDS011;34913;47.520;19.186;2023-08-30T06:20:20;13.05;;;7.00;;
49101;SDS011;34913;47.520;19.186;2023-08-30T06:22:45;13.05;;;7.18;;
49101;SDS011;34913;47.520;19.186;2023-08-30T06:25:11;9.18;;;7.22;;
49101;SDS011;34913;47.520;19.186;2023-08-30T06:27:54;8.38;;;6.63;;
49101;SDS011;34913;47.520;19.186;2023-08-30T06:30:21;8.73;;;7.25;;
49101;SDS011;34913;47.520;19.186;2023-08-30T06:32:47;11.32;;;6.97;;
49101;SDS011;34913;47.520;19.186;2023-08-30T06:35:13;13.52;;;9.32;;
49101;SDS011;34913;47.520;19.186;2023-08-30T06:37:39;12.45;;;9.10;;
49101;SDS011;34913;47.520;19.186;2023-08-30T06:40:04;12.70;;;9.75;;
49101;SDS011;34913;47.520;19.186;2023-08-30T06:42:30;10.80;;;9.30;;
49101;SDS011;34913;47.520;19.186;2023-08-30T06:44:55;16.23;;;10.38;;
49101;SDS011;34913;47.520;19.186;2023-08-30T06:47:21;11.88;;;8.60;;
49101;SDS011;34913;47.520;19.186;2023-08-30T06:49:46;11.32;;;9.45;;
49101;SDS011;34913;47.520;19.186;2023-08-30T06:52:12;7.38;;;6.50;;
49101;SDS011;34913;47.520;19.186;2023-08-30T06:54:37;7.60;;;5.75;;
49101;SDS011;34913;47.520;19.186;2023-08-30T06:57:03;8.95;;;6.00;;
49101;SDS011;34913;47.520;19.186;2023-08-30T06:59:29;5.82;;;5.10;;
49101;SDS011;34913;47.520;19.186;2023-08-30T07:01:55;7.80;;;5.97;;
49101;SDS011;34913;47.520;19.186;2023-08-30T07:04:20;6.68;;;5.90;;
49101;SDS011;34913;47.520;19.186;2023-08-30T07:06:46;5.57;;;5.05;;
49101;SDS011;34913;47.520;19.186;2023-08-30T07:09:11;5.15;;;4.60;;
49101;SDS011;34913;47.520;19.186;2023-08-30T07:11:41;8.98;;;6.63;;
49101;SDS011;34913;47.520;19.186;2023-08-30T07:14:09;6.90;;;6.13;;
49101;SDS011;34913;47.520;19.186;2023-08-30T07:16:34;6.70;;;5.97;;
49101;SDS011;34913;47.520;19.186;2023-08-30T07:19:00;6.60;;;5.75;;
49101;SDS011;34913;47.520;19.186;2023-08-30T07:21:26;5.78;;;5.13;;
49101;SDS011;34913;47.520;19.186;2023-08-30T07:23:52;10.30;;;6.45;;
49101;SDS011;34913;47.520;19.186;2023-08-30T07:26:17;8.40;;;5.80;;
49101;SDS011;34913;47.520;19.186;2023-08-30T07:28:43;11.88;;;5.95;;
49101;SDS011;34913;47.520;19.186;2023-08-30T07:31:08;8.10;;;5.85;;
49101;SDS011;34913;47.520;19.186;2023-08-30T07:33:34;7.90;;;5.95;;
49101;SDS011;34913;47.520;19.186;2023-08-30T07:36:00;6.88;;;5.55;;
49101;SDS011;34913;47.520;19.186;2023-08-30T07:38:26;5.65;;;5.05;;
49101;SDS011;34913;47.520;19.186;2023-08-30T07:40:51;5.65;;;5.05;;
49101;SDS011;34913;47.520;19.186;2023-08-30T07:43:18;7.75;;;6.40;;
49101;SDS011;34913;47.520;19.186;2023-08-30T07:45:45;8.43;;;6.00;;
49101;SDS011;34913;47.520;19.186;2023-08-30T07:48:10;9.02;;;6.75;;
49101;SDS011;34913;47.520;19.186;2023-08-30T07:50:36;10.38;;;9.30;;
49101;SDS011;34913;47.520;19.186;2023-08-30T07:53:02;10.20;;;7.95;;
49101;SDS011;34913;47.520;19.186;2023-08-30T07:55:27;11.00;;;8.43;;
49101;SDS011;34913;47.520;19.186;2023-08-30T07:57:52;7.72;;;6.85;;
49101;SDS011;34913;47.520;19.186;2023-08-30T08:00:18;9.93;;;7.32;;
49101;SDS011;34913;47.520;19.186;2023-08-30T08:02:43;8.80;;;7.78;;
49101;SDS011;34913;47.520;19.186;2023-08-30T08:05:09;8.65;;;6.88;;
49101;SDS011;34913;47.520;19.186;2023-08-30T08:07:37;9.68;;;7.57;;
49101;SDS011;34913;47.520;19.186;2023-08-30T08:10:03;8.13;;;7.25;;
49101;SDS011;34913;47.520;19.186;2023-08-30T08:12:30;6.88;;;5.93;;
49101;SDS011;34913;47.520;19.186;2023-08-30T08:14:57;8.00;;;6.97;;
49101;SDS011;34913;47.520;19.186;2023-08-30T08:17:22;8.27;;;7.47;;
49101;SDS011;34913;47.520;19.186;2023-08-30T08:19:48;10.45;;;7.13;;
49101;SDS011;34913;47.520;19.186;2023-08-30T08:22:13;8.93;;;7.20;;
49101;SDS011;34913;47.520;19.186;2023-08-30T08:24:39;8.07;;;7.28;;
49101;SDS011;34913;47.520;19.186;2023-08-30T08:27:04;9.35;;;7.90;;
49101;SDS011;34913;47.520;19.186;2023-08-30T08:29:31;8.63;;;6.70;;
49101;SDS011;34913;47.520;19.186;2023-08-30T08:31:56;6.13;;;5.53;;
49101;SDS011;34913;47.520;19.186;2023-08-30T08:34:22;8.07;;;6.57;;
49101;SDS011;34913;47.520;19.186;2023-08-30T08:36:47;9.18;;;6.28;;
49101;SDS011;34913;47.520;19.186;2023-08-30T08:39:13;6.80;;;5.72;;
49101;SDS011;34913;47.520;19.186;2023-08-30T08:41:41;7.30;;;6.30;;
49101;SDS011;34913;47.520;19.186;2023-08-30T08:44:08;6.70;;;6.10;;
49101;SDS011;34913;47.520;19.186;2023-08-30T08:46:34;8.68;;;5.38;;
49101;SDS011;34913;47.520;19.186;2023-08-30T08:49:04;8.30;;;6.57;;
49101;SDS011;34913;47.520;19.186;2023-08-30T08:51:34;7.13;;;5.85;;
49101;SDS011;34913;47.520;19.186;2023-08-30T08:54:02;7.78;;;6.78;;
49101;SDS011;34913;47.520;19.186;2023-08-30T08:56:28;8.82;;;6.53;;
49101;SDS011;34913;47.520;19.186;2023-08-30T08:58:55;7.72;;;6.88;;
49101;SDS011;34913;47.520;19.186;2023-08-30T09:01:21;6.47;;;5.88;;
49101;SDS011;34913;47.520;19.186;2023-08-30T09:03:47;7.25;;;6.55;;
49101;SDS011;34913;47.520;19.186;2023-08-30T09:06:13;9.27;;;6.75;;
49101;SDS011;34913;47.520;19.186;2023-08-30T09:08:40;7.93;;;6.75;;
49101;SDS011;34913;47.520;19.186;2023-08-30T09:11:05;7.75;;;6.90;;
49101;SDS011;34913;47.520;19.186;2023-08-30T09:13:31;8.32;;;7.10;;
49101;SDS011;34913;47.520;19.186;2023-08-30T09:15:56;10.05;;;7.13;;
49101;SDS011;34913;47.520;19.186;2023-08-30T09:18:22;6.63;;;6.03;;
49101;SDS011;34913;47.520;19.186;2023-08-30T09:20:52;7.43;;;5.75;;
49101;SDS011;34913;47.520;19.186;2023-08-30T09:23:18;10.00;;;7.10;;
49101;SDS011;34913;47.520;19.186;2023-08-30T09:25:45;8.77;;;7.32;;
49101;SDS011;34913;47.520;19.186;2023-08-30T09:28:11;8.95;;;6.60;;
49101;SDS011;34913;47.520;19.186;2023-08-30T09:30:37;8.23;;;7.00;;
49101;SDS011;34913;47.520;19.186;2023-08-30T09:33:04;8.45;;;6.30;;
49101;SDS011;34913;47.520;19.186;2023-08-30T09:35:30;9.32;;;6.60;;
49101;SDS011;34913;47.520;19.186;2023-08-30T09:37:56;8.38;;;7.47;;
49101;SDS011;34913;47.520;19.186;2023-08-30T09:40:21;6.97;;;6.03;;
49101;SDS011;34913;47.520;19.186;2023-08-30T09:42:47;7.35;;;5.72;;
49101;SDS011;34913;47.520;19.186;2023-08-30T09:45:22;6.82;;;6.13;;
49101;SDS011;34913;47.520;19.186;2023-08-30T09:47:48;7.72;;;6.05;;
49101;SDS011;34913;47.520;19.186;2023-08-30T09:50:17;8.95;;;6.40;;
49101;SDS011;34913;47.520;19.186;2023-08-30T09:52:45;7.88;;;6.30;;
49101;SDS011;34913;47.520;19.186;2023-08-30T09:55:12;9.73;;;6.40;;
49101;SDS011;34913;47.520;19.186;2023-08-30T09:57:38;8.50;;;6.90;;
49101;SDS011;34913;47.520;19.186;2023-08-30T10:00:07;8.20;;;5.75;;
49101;SDS011;34913;47.520;19.186;2023-08-30T10:02:33;8.15;;;5.93;;
49101;SDS011;34913;47.520;19.186;2023-08-30T10:04:59;6.45;;;5.85;;
49101;SDS011;34913;47.520;19.186;2023-08-30T10:07:25;8.40;;;6.55;;
49101;SDS011;34913;47.520;19.186;2023-08-30T10:09:51;8.05;;;6.90;;
49101;SDS011;34913;47.520;19.186;2023-08-30T10:12:21;7.18;;;6.10;;
49101;SDS011;34913;47.520;19.186;2023-08-30T10:14:49;7.22;;;6.05;;
49101;SDS011;34913;47.520;19.186;2023-08-30T10:17:14;6.97;;;5.60;;
49101;SDS011;34913;47.520;19.186;2023-08-30T10:19:43;7.78;;;5.43;;
49101;SDS011;34913;47.520;19.186;2023-08-30T10:22:10;6.53;;;5.30;;
49101;SDS011;34913;47.520;19.186;2023-08-30T10:27:17;7.32;;;4.97;;
49101;SDS011;34913;47.520;19.186;2023-08-30T10:29:44;5.97;;;4.95;;
49101;SDS011;34913;47.520;19.186;2023-08-30T10:32:12;7.05;;;5.05;;
49101;SDS011;34913;47.520;19.186;2023-08-30T10:34:37;7.90;;;5.35;;
49101;SDS011;34913;47.520;19.186;2023-08-30T10:37:03;28.85;;;17.48;;
49101;SDS011;34913;47.520;19.186;2023-08-30T10:39:33;26.13;;;15.23;;
49101;SDS011;34913;47.520;19.186;2023-08-30T10:41:59;21.23;;;15.15;;
49101;SDS011;34913;47.520;19.186;2023-08-30T10:44:25;10.48;;;7.88;;
49101;SDS011;34913;47.520;19.186;2023-08-30T10:46:54;23.75;;;17.00;;
49101;SDS011;34913;47.520;19.186;2023-08-30T10:49:21;13.40;;;8.88;;
49101;SDS011;34913;47.520;19.186;2023-08-30T10:51:55;6.95;;;5.47;;
49101;SDS011;34913;47.520;19.186;2023-08-30T10:54:26;6.75;;;5.65;;
49101;SDS011;34913;47.520;19.186;2023-08-30T10:57:03;6.90;;;5.32;;
49101;SDS011;34913;47.520;19.186;2023-08-30T10:59:29;6.72;;;5.15;;
49101;SDS011;34913;47.520;19.186;2023-08-30T11:01:55;7.22;;;4.90;;
49101;SDS011;34913;47.520;19.186;2023-08-30T11:04:21;7.32;;;5.00;;
49101;SDS011;34913;47.520;19.186;2023-08-30T11:06:48;9.70;;;4.70;;
49101;SDS011;34913;47.520;19.186;2023-08-30T11:09:20;5.90;;;4.57;;
49101;SDS011;34913;47.520;19.186;2023-08-30T11:11:46;5.03;;;4.20;;
49101;SDS011;34913;47.520;19.186;2023-08-30T11:14:13;6.95;;;5.35;;
49101;SDS011;34913;47.520;19.186;2023-08-30T11:16:39;5.55;;;4.13;;
49101;SDS011;34913;47.520;19.186;2023-08-30T11:19:05;5.20;;;4.15;;
49101;SDS011;34913;47.520;19.186;2023-08-30T11:21:32;5.43;;;4.32;;
49101;SDS011;34913;47.520;19.186;2023-08-30T11:23:59;5.53;;;3.63;;
49101;SDS011;34913;47.520;19.186;2023-08-30T11:26:25;5.88;;;3.60;;
49101;SDS011;34913;47.520;19.186;2023-08-30T11:28:51;4.53;;;3.72;;
49101;SDS011;34913;47.520;19.186;2023-08-30T11:31:19;5.95;;;3.53;;
49101;SDS011;34913;47.520;19.186;2023-08-30T11:33:50;3.78;;;3.30;;
49101;SDS011;34913;47.520;19.186;2023-08-30T11:36:21;4.63;;;3.53;;
49101;SDS011;34913;47.520;19.186;2023-08-30T11:38:47;4.00;;;3.53;;
49101;SDS011;34913;47.520;19.186;2023-08-30T11:41:14;4.55;;;3.33;;
49101;SDS011;34913;47.520;19.186;2023-08-30T11:43:39;3.47;;;3.10;;
49101;SDS011;34913;47.520;19.186;2023-08-30T11:46:05;3.53;;;3.17;;
49101;SDS011;34913;47.520;19.186;2023-08-30T11:48:31;3.38;;;3.03;;
49101;SDS011;34913;47.520;19.186;2023-08-30T11:50:58;5.13;;;3.22;;
49101;SDS011;34913;47.520;19.186;2023-08-30T11:53:24;3.00;;;2.55;;
49101;SDS011;34913;47.520;19.186;2023-08-30T11:55:50;2.83;;;2.50;;
49101;SDS011;34913;47.520;19.186;2023-08-30T11:58:17;3.33;;;2.78;;
49101;SDS011;34913;47.520;19.186;2023-08-30T12:00:43;3.05;;;2.30;;
49101;SDS011;34913;47.520;19.186;2023-08-30T12:03:12;2.97;;;2.50;;
49101;SDS011;34913;47.520;19.186;2023-08-30T12:05:43;3.05;;;2.40;;
49101;SDS011;34913;47.520;19.186;2023-08-30T12:08:19;4.20;;;2.40;;
49101;SDS011;34913;47.520;19.186;2023-08-30T12:10:51;2.72;;;2.42;;
49101;SDS011;34913;47.520;19.186;2023-08-30T12:15:46;3.42;;;2.53;;
49101;SDS011;34913;47.520;19.186;2023-08-30T12:18:12;3.00;;;2.70;;
49101;SDS011;34913;47.520;19.186;2023-08-30T12:20:37;3.55;;;2.95;;
49101;SDS011;34913;47.520;19.186;2023-08-30T12:23:02;3.42;;;2.70;;
49101;SDS011;34913;47.520;19.186;2023-08-30T12:25:28;3.53;;;2.53;;
49101;SDS011;34913;47.520;19.186;2023-08-30T12:27:55;3.90;;;2.70;;
49101;SDS011;34913;47.520;19.186;2023-08-30T12:30:21;2.60;;;2.40;;
49101;SDS011;34913;47.520;19.186;2023-08-30T12:32:46;2.60;;;2.30;;
49101;SDS011;34913;47.520;19.186;2023-08-30T12:35:12;3.20;;;2.50;;
49101;SDS011;34913;47.520;19.186;2023-08-30T12:37:38;2.70;;;2.50;;
49101;SDS011;34913;47.520;19.186;2023-08-30T12:40:04;4.20;;;2.50;;
49101;SDS011;34913;47.520;19.186;2023-08-30T12:42:30;4.68;;;2.70;;
49101;SDS011;34913;47.520;19.186;2023-08-30T12:44:56;3.45;;;2.75;;
49101;SDS011;34913;47.520;19.186;2023-08-30T12:47:21;4.22;;;2.80;;
49101;SDS011;34913;47.520;19.186;2023-08-30T12:49:47;3.67;;;2.70;;
49101;SDS011;34913;47.520;19.186;2023-08-30T12:52:12;3.38;;;2.53;;
49101;SDS011;34913;47.520;19.186;2023-08-30T12:54:38;3.83;;;2.95;;
49101;SDS011;34913;47.520;19.186;2023-08-30T12:57:03;3.65;;;2.90;;
49101;SDS011;34913;47.520;19.186;2023-08-30T12:59:29;3.88;;;2.83;;
49101;SDS011;34913;47.520;19.186;2023-08-30T13:01:54;3.85;;;2.80;;
49101;SDS011;34913;47.520;19.186;2023-08-30T13:04:20;3.90;;;2.40;;
49101;SDS011;34913;47.520;19.186;2023-08-30T13:06:45;4.82;;;2.58;;
49101;SDS011;34913;47.520;19.186;2023-08-30T13:09:10;3.63;;;2.58;;
49101;SDS011;34913;47.520;19.186;2023-08-30T13:11:36;3.42;;;2.47;;
49101;SDS011;34913;47.520;19.186;2023-08-30T13:14:02;3.13;;;2.35;;
49101;SDS011;34913;47.520;19.186;2023-08-30T13:16:27;3.20;;;2.83;;
49101;SDS011;34913;47.520;19.186;2023-08-30T13:18:52;3.85;;;2.80;;
49101;SDS011;34913;47.520;19.186;2023-08-30T13:21:18;4.05;;;2.70;;
49101;SDS011;34913;47.520;19.186;2023-08-30T13:23:43;4.43;;;2.55;;
49101;SDS011;34913;47.520;19.186;2023-08-30T13:26:09;4.53;;;2.67;;
49101;SDS011;34913;47.520;19.186;2023-08-30T13:28:35;4.72;;;2.47;;
49101;SDS011;34913;47.520;19.186;2023-08-30T13:31:00;3.58;;;2.50;;
49101;SDS011;34913;47.520;19.186;2023-08-30T13:33:26;3.83;;;2.70;;
49101;SDS011;34913;47.520;19.186;2023-08-30T13:35:52;3.38;;;2.58;;
49101;SDS011;34913;47.520;19.186;2023-08-30T13:38:18;3.40;;;2.42;;
49101;SDS011;34913;47.520;19.186;2023-08-30T13:40:44;2.90;;;2.70;;
49101;SDS011;34913;47.520;19.186;2023-08-30T13:43:10;4.15;;;2.60;;
49101;SDS011;34913;47.520;19.186;2023-08-30T13:45:35;3.95;;;2.38;;
49101;SDS011;34913;47.520;19.186;2023-08-30T13:48:00;2.65;;;2.45;;
49101;SDS011;34913;47.520;19.186;2023-08-30T13:50:27;3.05;;;2.47;;
49101;SDS011;34913;47.520;19.186;2023-08-30T13:52:58;3.00;;;2.53;;
49101;SDS011;34913;47.520;19.186;2023-08-30T13:55:24;3.50;;;2.25;;
49101;SDS011;34913;47.520;19.186;2023-08-30T13:57:49;2.10;;;1.90;;
49101;SDS011;34913;47.520;19.186;2023-08-30T14:00:15;3.75;;;2.20;;
49101;SDS011;34913;47.520;19.186;2023-08-30T14:02:41;3.33;;;2.35;;
49101;SDS011;34913;47.520;19.186;2023-08-30T14:05:06;2.92;;;2.47;;
49101;SDS011;34913;47.520;19.186;2023-08-30T14:07:33;2.50;;;2.30;;
49101;SDS011;34913;47.520;19.186;2023-08-30T14:09:59;6.32;;;2.40;;
49101;SDS011;34913;47.520;19.186;2023-08-30T14:12:24;2.33;;;2.13;;
49101;SDS011;34913;47.520;19.186;2023-08-30T14:14:50;4.40;;;2.90;;
49101;SDS011;34913;47.520;19.186;2023-08-30T14:17:17;2.40;;;2.20;;
49101;SDS011;34913;47.520;19.186;2023-08-30T14:19:42;3.33;;;2.30;;
49101;SDS011;34913;47.520;19.186;2023-08-30T14:22:07;2.90;;;2.38;;
49101;SDS011;34913;47.520;19.186;2023-08-30T14:24:33;3.28;;;2.20;;
49101;SDS011;34913;47.520;19.186;2023-08-30T14:27:01;2.60;;;2.20;;
49101;SDS011;34913;47.520;19.186;2023-08-30T14:29:28;3.05;;;2.33;;
49101;SDS011;34913;47.520;19.186;2023-08-30T14:31:53;2.90;;;1.95;;
49101;SDS011;34913;47.520;19.186;2023-08-30T14:34:22;5.95;;;2.63;;
49101;SDS011;34913;47.520;19.186;2023-08-30T14:36:47;2.55;;;2.35;;
49101;SDS011;34913;47.520;19.186;2023-08-30T14:39:13;2.75;;;2.30;;
49101;SDS011;34913;47.520;19.186;2023-08-30T14:41:39;3.67;;;2.40;;
49101;SDS011;34913;47.520;19.186;2023-08-30T14:44:05;4.05;;;2.05;;